METAR AND TAF INFORMATION
METAR FOR LGKO
ADDS - METARS form results

(1117 UTC 27 October 2020)
Data provider http://aviationweather.gov/metar/data/
 
METAR text: LGKO 271050Z 32007KT 9999 FEW018 23/15 Q1014
Conditions at: LGKO (KOS AIRPORT , GR) observed 1050 UTC 27 October 2020
Temperature: 23.0°C (73°F)
Dewpoint: 15.0°C (59°F) [RH = 61%]
Pressure (altimeter): 29.94 inches Hg (1014.0 mb)
Winds: from the NW (320 degrees) at 8 MPH (7 knots; 3.6 m/s)
Visibility: 6 or more miles (10+ km)
Ceiling: at least 12,000 feet AGL
Clouds: few clouds at 1800 feet AGL
Weather: no significant weather observed at this time

METAR text: LGKO 271020Z 29006KT 9999 FEW018 23/15 Q1014
Conditions at: LGKO (KOS AIRPORT , GR) observed 1020 UTC 27 October 2020
Temperature: 23.0°C (73°F)
Dewpoint: 15.0°C (59°F) [RH = 61%]
Pressure (altimeter): 29.94 inches Hg (1014.0 mb)
Winds: from the WNW (290 degrees) at 7 MPH (6 knots; 3.1 m/s)
Visibility: 6 or more miles (10+ km)
Ceiling: at least 12,000 feet AGL
Clouds: few clouds at 1800 feet AGL
Weather: no significant weather observed at this time

Forecast for: LGKO (KOS AIRPORT , GR)
Text: TAF LGKO 271100Z 2712/2812 32008KT 9999 FEW018
Forecast period: 1200 UTC 27 October 2020 to 0600 UTC 28 October 2020
Forecast type: FROM: standard forecast or significant change
Winds: from the NW (320 degrees) at 9 MPH (8 knots; 4.1 m/s)
Visibility: 6 or more miles (10+ km)
Ceiling: at least 12,000 feet AGL
Clouds: few clouds at 1800 feet AGL
Weather: no significant weather forecast for this period
Text: BECMG 2806/2810 10010KT
Forecast period: 0600 to 1200 UTC 28 October 2020
Forecast type: BECOMING: Conditions expected to become as follows by 1000 UTC 28 October 2020
Winds: from the E (100 degrees) at 12 MPH (10 knots; 5.1 m/s)
Visibility: 6 or more miles (10+ km)
Ceiling: at least 12,000 feet AGL
Clouds: few clouds at 1800 feet AGL
Weather: no significant weather forecast for this period

 AIRPORT MAP

 RUNWAY INFORMATION
Runway 14 Runway length 7841 ft Runway width 148 ft
Runway elevation 412 ft Runway displaced threshold 0 ft Runway heading 148
Runway 32 Runway length 7841 ft Runway width 148 ft
Runway elevation 373 ft Runway displaced threshold 0 ft Runway heading 328

 AIRPORT FREQUENCIES
Type A/G Name IPPOKRATIS Frequency 563.7 MHZ
Type APP Name APP Frequency 119.95 MHZ
Type ATIS Name ATIS Frequency 126.95 MHZ
Type TWR Name IPPOKRATIS Frequency 121.05 MHZ

 AIRPORT NEAR NAVIGATION AIDS
Type VOR-DME Name Kos Frequency 109000 KHZ
Type NDB Name Kos Frequency 311 KHZ



Powered by Virtual Airlines Manager [v2.6.2]